createdAt,value
2023-02-16T00:01:22.560Z,12.60
2023-02-16T00:03:54.196Z,12.60
2023-02-16T00:06:23.144Z,12.50
2023-02-16T00:08:54.362Z,12.60
2023-02-16T00:11:45.951Z,12.50
2023-02-16T00:14:16.280Z,12.50
2023-02-16T00:16:45.270Z,12.50
2023-02-16T00:19:23.874Z,12.50
2023-02-16T00:21:57.044Z,12.50
2023-02-16T00:24:28.153Z,12.50
2023-02-16T00:26:57.695Z,12.50
2023-02-16T00:29:29.591Z,12.50
2023-02-16T00:32:00.639Z,12.50
2023-02-16T00:34:34.436Z,12.50
2023-02-16T00:37:05.581Z,12.50
2023-02-16T00:39:34.610Z,12.50
2023-02-16T00:42:06.544Z,12.50
2023-02-16T00:44:38.902Z,12.40
2023-02-16T00:47:20.673Z,12.40
2023-02-16T00:49:52.992Z,12.40
2023-02-16T00:52:35.520Z,12.40
2023-02-16T00:55:10.301Z,12.40
2023-02-16T00:57:43.130Z,12.40
2023-02-16T01:00:19.221Z,12.40
2023-02-16T01:02:50.572Z,12.40
2023-02-16T01:05:23.280Z,12.30
2023-02-16T01:08:21.288Z,12.30
2023-02-16T01:11:10.266Z,12.30
2023-02-16T01:13:47.816Z,12.30
2023-02-16T01:16:20.063Z,12.30
2023-02-16T01:18:50.364Z,12.30
2023-02-16T01:21:22.978Z,12.30
2023-02-16T01:23:51.711Z,12.30
2023-02-16T01:26:22.205Z,12.30
2023-02-16T01:28:50.983Z,12.20
2023-02-16T01:31:19.693Z,12.20
2023-02-16T01:33:48.391Z,12.20
2023-02-16T01:36:27.842Z,12.20
2023-02-16T01:38:56.532Z,12.20
2023-02-16T01:41:45.232Z,12.20
2023-02-16T01:44:17.876Z,12.20
2023-02-16T01:46:52.456Z,12.20
2023-02-16T01:49:22.652Z,12.20
2023-02-16T01:51:59.719Z,12.20
2023-02-16T01:54:37.448Z,12.30
2023-02-16T01:57:21.016Z,12.30
2023-02-16T02:00:21.193Z,12.20
2023-02-16T02:02:53.204Z,12.20
2023-02-16T02:05:37.151Z,12.20
2023-02-16T02:08:22.293Z,12.30
2023-02-16T02:11:08.720Z,12.30
2023-02-16T02:13:43.847Z,12.30
2023-02-16T02:16:13.886Z,12.20
2023-02-16T02:18:44.946Z,12.20
2023-02-16T02:21:50.416Z,12.20
2023-02-16T02:24:58.858Z,12.20
2023-02-16T02:27:32.975Z,12.20
2023-02-16T02:30:31.393Z,12.20
2023-02-16T02:33:36.068Z,12.20
2023-02-16T02:36:20.083Z,12.20
2023-02-16T02:39:02.750Z,12.20
2023-02-16T02:41:56.599Z,12.20
2023-02-16T02:44:30.743Z,12.20
2023-02-16T02:47:00.018Z,12.20
2023-02-16T02:49:28.603Z,12.10
2023-02-16T02:51:57.492Z,12.10
2023-02-16T02:54:48.344Z,12.10
2023-02-16T02:57:40.356Z,12.10
2023-02-16T03:00:32.845Z,12.10
2023-02-16T03:03:07.484Z,12.10
2023-02-16T03:05:39.374Z,12.10
2023-02-16T03:08:15.251Z,12.10
2023-02-16T03:11:05.934Z,12.00
2023-02-16T03:13:40.016Z,12.00
2023-02-16T03:16:15.464Z,12.00
2023-02-16T03:19:03.297Z,12.00
2023-02-16T03:21:50.977Z,12.00
2023-02-16T03:24:42.437Z,12.00
2023-02-16T03:27:28.951Z,12.00
2023-02-16T03:29:59.088Z,12.00
2023-02-16T03:32:29.523Z,12.00
2023-02-16T03:34:58.157Z,12.00
2023-02-16T03:37:26.913Z,12.00
2023-02-16T03:40:14.141Z,12.00
2023-02-16T03:42:50.995Z,12.00
2023-02-16T03:45:20.282Z,12.00
2023-02-16T03:47:50.329Z,12.00
2023-02-16T03:50:19.250Z,12.00
2023-02-16T03:52:47.994Z,12.00
2023-02-16T03:55:17.144Z,12.00
2023-02-16T03:57:45.827Z,12.00
2023-02-16T04:00:15.507Z,12.00
2023-02-16T04:02:45.119Z,12.00
2023-02-16T04:05:15.186Z,12.00
2023-02-16T04:07:43.833Z,12.00
2023-02-16T04:10:12.555Z,12.00
2023-02-16T04:12:40.229Z,11.90
2023-02-16T04:15:12.549Z,12.00
2023-02-16T04:17:41.483Z,11.90
2023-02-16T04:20:15.272Z,11.90
2023-02-16T04:22:44.571Z,12.00
2023-02-16T04:25:13.787Z,11.90
2023-02-16T04:27:44.386Z,11.90
2023-02-16T04:30:17.143Z,11.90
2023-02-16T04:32:46.504Z,11.90
2023-02-16T04:35:17.561Z,12.00
2023-02-16T04:37:46.494Z,12.00
2023-02-16T04:40:17.219Z,12.00
2023-02-16T04:42:46.672Z,11.90
2023-02-16T04:45:15.628Z,11.90
2023-02-16T04:47:44.297Z,11.90
2023-02-16T04:50:15.150Z,11.90
2023-02-16T04:52:43.829Z,11.90
2023-02-16T04:55:12.481Z,11.90
2023-02-16T04:57:41.343Z,11.90
2023-02-16T05:00:12.927Z,11.90
2023-02-16T05:02:41.628Z,11.90
2023-02-16T05:05:10.364Z,11.90
2023-02-16T05:07:40.375Z,11.90
2023-02-16T05:10:10.060Z,11.80
2023-02-16T05:12:55.867Z,11.90
2023-02-16T05:15:24.517Z,11.90
2023-02-16T05:17:53.127Z,11.90
2023-02-16T05:20:42.008Z,11.90
2023-02-16T05:23:12.095Z,11.90
2023-02-16T05:25:40.892Z,11.90
2023-02-16T05:28:09.604Z,11.80
2023-02-16T05:30:38.277Z,11.80
2023-02-16T05:33:06.876Z,11.80
2023-02-16T05:35:35.748Z,11.80
2023-02-16T05:38:04.712Z,11.80
2023-02-16T05:40:34.730Z,11.80
2023-02-16T05:43:03.718Z,11.80
2023-02-16T05:45:32.463Z,11.80
2023-02-16T05:48:01.195Z,11.80
2023-02-16T05:50:29.893Z,11.80
2023-02-16T05:53:01.231Z,11.80
2023-02-16T05:55:29.958Z,11.80
2023-02-16T05:57:59.995Z,11.70
2023-02-16T06:00:28.756Z,11.70
2023-02-16T06:02:57.432Z,11.70
2023-02-16T06:05:26.355Z,11.70
2023-02-16T06:07:54.968Z,11.70
2023-02-16T06:10:23.624Z,11.70
2023-02-16T06:12:52.213Z,11.70
2023-02-16T06:15:22.310Z,11.70
2023-02-16T06:17:50.934Z,11.70
2023-02-16T06:20:20.663Z,11.60
2023-02-16T06:22:49.472Z,11.60
2023-02-16T06:25:20.240Z,11.60
2023-02-16T06:27:50.117Z,11.60
2023-02-16T06:30:19.346Z,11.60
2023-02-16T06:32:49.417Z,11.60
2023-02-16T06:35:18.406Z,11.60
2023-02-16T06:37:47.027Z,11.50
2023-02-16T06:40:17.574Z,11.50
2023-02-16T06:42:46.725Z,11.50
2023-02-16T06:45:15.377Z,11.50
2023-02-16T06:47:44.375Z,11.50
2023-02-16T06:50:15.139Z,11.50
2023-02-16T06:52:43.790Z,11.50
2023-02-16T06:55:12.898Z,11.50
2023-02-16T06:57:41.680Z,11.50
2023-02-16T07:00:11.348Z,11.40
2023-02-16T07:02:39.972Z,11.40
2023-02-16T07:05:09.070Z,11.40
2023-02-16T07:07:39.098Z,11.40
2023-02-16T07:10:09.458Z,11.40
2023-02-16T07:12:38.040Z,11.40
2023-02-16T07:15:07.441Z,11.40
2023-02-16T07:17:36.381Z,11.40
2023-02-16T07:20:06.017Z,11.40
2023-02-16T07:22:34.819Z,11.40
2023-02-16T07:25:04.931Z,11.40
2023-02-16T07:27:33.569Z,11.40
2023-02-16T07:30:02.239Z,11.40
2023-02-16T07:32:32.004Z,11.40
2023-02-16T07:35:00.662Z,11.40
2023-02-16T07:37:29.259Z,11.40
2023-02-16T07:39:58.095Z,11.40
2023-02-16T07:42:32.381Z,11.40
2023-02-16T07:45:01.352Z,11.40
2023-02-16T07:47:30.002Z,11.40
2023-02-16T07:49:58.630Z,11.40
2023-02-16T07:52:31.125Z,11.40
2023-02-16T07:55:00.119Z,11.40
2023-02-16T07:57:30.555Z,11.40
2023-02-16T07:59:59.164Z,11.50
2023-02-16T08:02:28.503Z,11.40
2023-02-16T08:04:57.187Z,11.40
2023-02-16T08:07:25.875Z,11.40
2023-02-16T08:09:54.502Z,11.50
2023-02-16T08:12:23.154Z,11.50
2023-02-16T08:14:53.231Z,11.50
2023-02-16T08:17:21.850Z,11.50
2023-02-16T08:19:51.857Z,11.50
2023-02-16T08:22:20.539Z,11.50
2023-02-16T08:24:49.224Z,11.60
2023-02-16T08:27:18.035Z,11.60
2023-02-16T08:29:46.899Z,11.60
2023-02-16T08:32:17.035Z,11.60
2023-02-16T08:34:45.711Z,11.70
2023-02-16T08:37:14.975Z,11.70
2023-02-16T08:39:43.923Z,11.70
2023-02-16T08:42:14.305Z,11.70
2023-02-16T08:44:43.447Z,11.80
2023-02-16T08:47:12.137Z,11.80
2023-02-16T08:49:44.306Z,11.80
2023-02-16T08:52:13.459Z,11.90
2023-02-16T08:54:42.246Z,11.90
2023-02-16T08:57:11.331Z,11.90
2023-02-16T08:59:39.970Z,12.00
2023-02-16T09:02:09.159Z,12.00
2023-02-16T09:04:38.040Z,12.10
2023-02-16T09:07:08.027Z,12.10
2023-02-16T09:09:36.664Z,12.20
2023-02-16T09:12:05.892Z,12.20
2023-02-16T09:14:34.595Z,12.20
2023-02-16T09:17:03.374Z,12.30
2023-02-16T09:19:32.092Z,12.30
2023-02-16T09:22:00.731Z,12.40
2023-02-16T09:24:31.013Z,12.40
2023-02-16T09:26:59.677Z,12.50
2023-02-16T09:29:28.265Z,12.50
2023-02-16T09:31:56.948Z,12.60
2023-02-16T09:34:27.951Z,12.60
2023-02-16T09:36:56.808Z,12.70
2023-02-16T09:39:25.481Z,12.70
2023-02-16T09:42:11.494Z,12.80
2023-02-16T09:44:50.580Z,12.80
2023-02-16T09:47:29.425Z,12.90
2023-02-16T09:49:59.872Z,12.90
2023-02-16T09:52:37.103Z,13.00
2023-02-16T09:55:13.333Z,13.00
2023-02-16T09:58:08.186Z,13.10
2023-02-16T10:00:49.554Z,13.20
2023-02-16T10:03:41.294Z,13.20
2023-02-16T10:06:29.826Z,13.30
2023-02-16T10:09:01.146Z,13.30
2023-02-16T10:11:42.090Z,13.40
2023-02-16T10:14:23.187Z,13.50
2023-02-16T10:17:00.234Z,13.50
2023-02-16T10:19:35.260Z,13.60
2023-02-16T10:22:08.375Z,13.60
2023-02-16T10:24:49.900Z,13.70
2023-02-16T10:27:18.565Z,13.70
2023-02-16T10:29:48.628Z,13.80
2023-02-16T10:32:29.118Z,13.90
2023-02-16T10:35:10.942Z,13.90
2023-02-16T10:37:56.028Z,14.00
2023-02-16T10:40:34.519Z,14.00
2023-02-16T10:43:14.154Z,14.10
2023-02-16T10:45:52.511Z,14.10
2023-02-16T10:48:22.970Z,14.20
2023-02-16T10:51:00.355Z,14.20
2023-02-16T10:53:40.903Z,14.30
2023-02-16T10:56:40.514Z,14.30
2023-02-16T10:59:17.664Z,14.30
2023-02-16T11:01:52.021Z,14.40
2023-02-16T11:04:49.329Z,14.50
2023-02-16T11:07:21.041Z,14.50
2023-02-16T11:09:53.108Z,14.50
2023-02-16T11:12:32.500Z,14.60
2023-02-16T11:15:06.364Z,14.60
2023-02-16T11:17:52.644Z,14.60
2023-02-16T11:20:31.161Z,14.70
2023-02-16T11:23:23.242Z,14.70
2023-02-16T11:26:04.158Z,14.70
2023-02-16T11:28:38.514Z,14.80
2023-02-16T11:31:19.152Z,14.80
2023-02-16T11:34:01.374Z,14.80
2023-02-16T11:36:36.062Z,14.80
2023-02-16T11:39:15.815Z,14.90
2023-02-16T11:41:52.173Z,14.90
2023-02-16T11:44:29.084Z,14.90
2023-02-16T11:46:58.811Z,14.90
2023-02-16T11:49:35.899Z,15.00
2023-02-16T11:52:29.284Z,15.00
2023-02-16T11:55:02.063Z,15.00
2023-02-16T11:57:33.789Z,15.00
2023-02-16T12:00:12.006Z,15.00
2023-02-16T12:03:25.115Z,15.10
2023-02-16T12:06:18.090Z,15.10
2023-02-16T12:09:09.046Z,15.10
2023-02-16T12:11:50.095Z,15.10
2023-02-16T12:14:44.911Z,15.10
2023-02-16T12:17:34.781Z,15.20
2023-02-16T12:20:17.288Z,15.20
2023-02-16T12:22:50.008Z,15.20
2023-02-16T12:25:34.996Z,15.20
2023-02-16T12:28:15.016Z,15.20
2023-02-16T12:30:58.594Z,15.20
2023-02-16T12:33:43.510Z,15.20
2023-02-16T12:36:37.614Z,15.30
2023-02-16T12:39:18.860Z,15.30
2023-02-16T12:42:19.845Z,15.30
2023-02-16T12:44:52.343Z,15.30
2023-02-16T12:47:26.911Z,15.40
2023-02-16T12:49:59.371Z,15.30
2023-02-16T12:52:38.172Z,15.30
2023-02-16T12:55:22.192Z,15.40
2023-02-16T12:58:04.257Z,15.40
2023-02-16T13:00:46.566Z,15.40
2023-02-16T13:03:37.252Z,15.40
2023-02-16T13:06:18.090Z,15.40
2023-02-16T13:08:53.145Z,15.40
2023-02-16T13:11:30.111Z,15.40
2023-02-16T13:14:06.189Z,15.40
2023-02-16T13:16:44.059Z,15.40
2023-02-16T13:19:14.551Z,15.40
2023-02-16T13:22:20.802Z,15.40
2023-02-16T13:25:05.310Z,15.40
2023-02-16T13:27:45.537Z,15.40
2023-02-16T13:30:48.459Z,15.40
2023-02-16T13:33:50.251Z,15.40
2023-02-16T13:37:04.894Z,15.50
2023-02-16T13:40:14.900Z,15.40
2023-02-16T13:43:13.269Z,15.50
2023-02-16T13:45:44.568Z,15.40
2023-02-16T13:48:23.964Z,15.50
2023-02-16T13:50:59.768Z,15.40
2023-02-16T13:53:36.234Z,15.40
2023-02-16T13:56:22.378Z,15.40
2023-02-16T13:58:53.990Z,15.40
2023-02-16T14:01:43.237Z,15.50
2023-02-16T14:05:01.582Z,15.50
2023-02-16T14:07:38.383Z,15.50
2023-02-16T14:10:14.668Z,15.50
2023-02-16T14:12:44.515Z,15.50
2023-02-16T14:15:22.583Z,15.50
2023-02-16T14:17:51.261Z,15.50
2023-02-16T14:20:31.282Z,15.50
2023-02-16T14:23:03.208Z,15.50
2023-02-16T14:25:39.206Z,15.50
2023-02-16T14:29:04.552Z,15.50
2023-02-16T14:31:43.168Z,15.50
2023-02-16T14:34:21.529Z,15.50
2023-02-16T14:37:30.656Z,15.50
2023-02-16T14:40:16.490Z,15.50
2023-02-16T14:42:52.858Z,15.60
2023-02-16T14:46:19.884Z,15.60
2023-02-16T14:49:40.721Z,15.60
2023-02-16T14:52:59.854Z,15.60
2023-02-16T14:56:08.643Z,15.60
2023-02-16T14:58:46.577Z,15.60
2023-02-16T15:01:18.865Z,15.70
2023-02-16T15:03:50.435Z,15.70
2023-02-16T15:06:29.668Z,15.60
2023-02-16T15:09:05.183Z,15.60
2023-02-16T15:11:57.237Z,15.70
2023-02-16T15:14:27.739Z,15.70
2023-02-16T15:16:58.907Z,15.70
2023-02-16T15:19:32.385Z,15.70
2023-02-16T15:22:20.078Z,15.70
2023-02-16T15:25:02.640Z,15.70
2023-02-16T15:27:33.122Z,15.70
2023-02-16T15:30:22.013Z,15.70
2023-02-16T15:32:53.820Z,15.70
2023-02-16T15:35:30.796Z,15.70
2023-02-16T15:38:10.955Z,15.70
2023-02-16T15:40:40.883Z,15.80
2023-02-16T15:43:22.892Z,15.80
2023-02-16T15:45:53.929Z,15.80
2023-02-16T15:48:27.845Z,15.80
2023-02-16T15:51:02.735Z,15.80
2023-02-16T15:53:47.273Z,15.80
2023-02-16T15:56:32.431Z,15.80
2023-02-16T15:59:04.297Z,15.80
2023-02-16T16:01:35.206Z,15.80
2023-02-16T16:04:19.887Z,15.80
2023-02-16T16:06:51.394Z,15.80
2023-02-16T16:09:26.706Z,15.80
2023-02-16T16:11:58.079Z,15.80
2023-02-16T16:14:28.487Z,15.80
2023-02-16T16:16:57.646Z,15.80
2023-02-16T16:19:35.170Z,15.80
2023-02-16T16:22:05.489Z,15.80
2023-02-16T16:24:39.311Z,15.80
2023-02-16T16:27:10.688Z,15.80
2023-02-16T16:29:44.027Z,15.80
2023-02-16T16:32:23.117Z,15.80
2023-02-16T16:34:52.423Z,15.80
2023-02-16T16:37:29.006Z,15.80
2023-02-16T16:40:08.877Z,15.80
2023-02-16T16:42:40.189Z,15.80
2023-02-16T16:45:35.311Z,15.80
2023-02-16T16:48:11.213Z,15.80
2023-02-16T16:50:41.102Z,15.80
2023-02-16T16:53:55.396Z,15.80
2023-02-16T16:56:25.872Z,15.80
2023-02-16T16:58:57.886Z,15.80
2023-02-16T17:01:29.425Z,15.80
2023-02-16T17:03:58.908Z,15.80
2023-02-16T17:06:28.390Z,15.80
2023-02-16T17:08:57.009Z,15.80
2023-02-16T17:11:31.847Z,15.80
2023-02-16T17:14:09.624Z,15.80
2023-02-16T17:16:42.859Z,15.80
2023-02-16T17:19:13.981Z,15.80
2023-02-16T17:21:42.679Z,15.80
2023-02-16T17:24:11.439Z,15.80
2023-02-16T17:26:44.688Z,15.80
2023-02-16T17:29:13.326Z,15.80
2023-02-16T17:31:41.985Z,15.80
2023-02-16T17:34:10.683Z,15.80
2023-02-16T17:36:39.655Z,15.80
2023-02-16T17:39:08.510Z,15.80
2023-02-16T17:41:37.126Z,15.80
2023-02-16T17:44:07.263Z,15.80
2023-02-16T17:46:35.946Z,15.80
2023-02-16T17:49:04.684Z,15.80
2023-02-16T17:51:36.464Z,15.80
2023-02-16T17:54:06.510Z,15.80
2023-02-16T17:56:35.997Z,15.80
2023-02-16T17:59:06.987Z,15.80
2023-02-16T18:01:35.826Z,15.80
2023-02-16T18:04:04.590Z,15.80
2023-02-16T18:06:33.334Z,15.80
2023-02-16T18:09:01.974Z,15.80
2023-02-16T18:11:31.244Z,15.80
2023-02-16T18:14:00.106Z,15.80
2023-02-16T18:16:30.344Z,15.80
2023-02-16T18:18:58.999Z,15.80
2023-02-16T18:21:27.673Z,15.80
2023-02-16T18:23:56.274Z,15.80
2023-02-16T18:26:25.242Z,15.80
2023-02-16T18:28:53.907Z,15.80
2023-02-16T18:31:22.704Z,15.80
2023-02-16T18:33:52.975Z,15.80
2023-02-16T18:36:21.585Z,15.80
2023-02-16T18:38:51.518Z,15.80
2023-02-16T18:41:20.418Z,15.80
2023-02-16T18:43:49.088Z,15.80
2023-02-16T18:46:18.690Z,15.80
2023-02-16T18:48:47.414Z,15.80
2023-02-16T18:51:23.605Z,15.80
2023-02-16T18:53:52.228Z,15.80
2023-02-16T18:56:20.860Z,15.80
2023-02-16T18:58:49.505Z,15.80
2023-02-16T19:01:29.078Z,15.80
2023-02-16T19:03:58.845Z,15.80
2023-02-16T19:06:29.140Z,15.80
2023-02-16T19:08:59.034Z,15.80
2023-02-16T19:11:30.772Z,15.80
2023-02-16T19:13:59.436Z,15.80
2023-02-16T19:16:28.114Z,15.80
2023-02-16T19:18:56.818Z,15.80
2023-02-16T19:21:25.526Z,15.80
2023-02-16T19:23:55.614Z,15.80
2023-02-16T19:26:24.582Z,15.80
2023-02-16T19:28:54.402Z,15.80
2023-02-16T19:31:27.239Z,15.80
2023-02-16T19:33:57.773Z,15.80
2023-02-16T19:36:27.850Z,15.80
2023-02-16T19:38:58.596Z,15.80
2023-02-16T19:41:30.160Z,15.80
2023-02-16T19:43:59.292Z,15.80
2023-02-16T19:46:28.954Z,15.80
2023-02-16T19:48:59.056Z,15.80
2023-02-16T19:51:28.627Z,15.80
2023-02-16T19:53:59.589Z,15.80
2023-02-16T19:56:28.647Z,15.80
2023-02-16T19:58:59.902Z,15.80
2023-02-16T20:01:29.725Z,15.90
2023-02-16T20:04:00.175Z,15.90
2023-02-16T20:06:32.164Z,15.90
2023-02-16T20:09:03.357Z,15.90
2023-02-16T20:11:32.816Z,15.90
2023-02-16T20:14:02.133Z,15.90
2023-02-16T20:16:31.309Z,15.90
2023-02-16T20:19:00.513Z,15.80
2023-02-16T20:21:30.808Z,15.90
2023-02-16T20:24:03.090Z,15.90
2023-02-16T20:26:34.744Z,15.90
2023-02-16T20:29:04.801Z,15.90
2023-02-16T20:31:37.559Z,15.90
2023-02-16T20:34:07.817Z,15.90
2023-02-16T20:36:36.597Z,15.90
2023-02-16T20:39:09.185Z,15.90
2023-02-16T20:41:37.991Z,15.90
2023-02-16T20:44:07.093Z,15.90
2023-02-16T20:46:35.937Z,15.90
2023-02-16T20:49:05.572Z,16.00
2023-02-16T20:51:35.134Z,16.00
2023-02-16T20:54:06.875Z,16.00
2023-02-16T20:56:35.624Z,16.00
2023-02-16T20:59:05.423Z,16.00
2023-02-16T21:01:38.188Z,16.00
2023-02-16T21:04:08.909Z,16.00
2023-02-16T21:06:38.294Z,16.00
2023-02-16T21:09:10.292Z,16.00
2023-02-16T21:11:39.855Z,16.00
2023-02-16T21:14:10.683Z,16.00
2023-02-16T21:16:41.092Z,16.00
2023-02-16T21:19:22.189Z,16.00
2023-02-16T21:21:52.302Z,16.00
2023-02-16T21:24:22.536Z,16.00
2023-02-16T21:26:51.196Z,16.00
2023-02-16T21:29:19.874Z,16.10
2023-02-16T21:31:48.575Z,16.10
2023-02-16T21:34:17.368Z,16.10
2023-02-16T21:36:47.457Z,16.10
2023-02-16T21:39:16.169Z,16.00
2023-02-16T21:41:45.343Z,16.00
2023-02-16T21:44:16.789Z,16.10
2023-02-16T21:46:47.699Z,16.10
2023-02-16T21:49:18.786Z,16.10
2023-02-16T21:51:49.077Z,16.10
2023-02-16T21:54:40.074Z,16.10
2023-02-16T21:57:09.064Z,16.10
2023-02-16T21:59:38.099Z,16.10
2023-02-16T22:02:06.742Z,16.10
2023-02-16T22:04:35.363Z,16.10
2023-02-16T22:07:03.952Z,16.10
2023-02-16T22:09:32.619Z,16.10
2023-02-16T22:12:01.278Z,16.10
2023-02-16T22:14:33.218Z,16.10
2023-02-16T22:17:03.138Z,16.10
2023-02-16T22:19:31.772Z,16.20
2023-02-16T22:22:00.482Z,16.20
2023-02-16T22:24:29.100Z,16.20
2023-02-16T22:26:57.811Z,16.20
2023-02-16T22:29:26.435Z,16.20
2023-02-16T22:31:56.448Z,16.20
2023-02-16T22:34:25.099Z,16.20
2023-02-16T22:36:53.740Z,16.20
2023-02-16T22:39:22.606Z,16.20
2023-02-16T22:41:52.016Z,16.20
2023-02-16T22:44:20.795Z,16.20
2023-02-16T22:46:49.540Z,16.20
2023-02-16T22:49:19.684Z,16.20
2023-02-16T22:51:48.646Z,16.20
2023-02-16T22:54:17.311Z,16.20
2023-02-16T22:56:46.019Z,16.20
2023-02-16T22:59:14.877Z,16.20
2023-02-16T23:01:43.606Z,16.20
2023-02-16T23:04:16.392Z,16.20
2023-02-16T23:06:46.926Z,16.20
2023-02-16T23:09:18.668Z,16.20
2023-02-16T23:11:47.959Z,16.20
2023-02-16T23:14:20.793Z,16.20
2023-02-16T23:16:51.861Z,16.20
2023-02-16T23:19:24.999Z,16.20
2023-02-16T23:21:55.918Z,16.20
2023-02-16T23:24:25.271Z,16.20
2023-02-16T23:26:54.859Z,16.20
2023-02-16T23:29:23.680Z,16.20
2023-02-16T23:31:53.124Z,16.20
2023-02-16T23:34:22.607Z,16.20
2023-02-16T23:36:51.338Z,16.30
2023-02-16T23:39:21.323Z,16.20
2023-02-16T23:41:50.010Z,16.20
2023-02-16T23:44:18.628Z,16.30
2023-02-16T23:46:47.414Z,16.30
2023-02-16T23:49:16.044Z,16.30
2023-02-16T23:51:44.616Z,16.30
2023-02-16T23:54:13.257Z,16.30
2023-02-16T23:56:43.224Z,16.30
2023-02-16T23:59:11.888Z,16.30
